首页
METAR-TAF:

METAR-TAF

机场 :

Lytton, 不列颠哥伦比亚, 加拿大

纬度: 50-14N, 经度: 121-35W, 海拔: 229米

当前天气观测

该预报发布于1小时和16分钟前的18:00 UTC
风速13节,风向,有时为20节阵风
温度 15°C
湿度 59%
气压 1016 hPa
能見度: 14.5公里
少量云层高于8100英尺

METAR: CWLY 181800Z AUTO 19013G20KT 9SM FEW081 15/07 A3001 RMK SLP165

时间: 12:16 (19:16 UTC)


TAF: 丢失

超过4000个机场的气象观测和天气预报(METAR&TAF报告)。

可查询的气象台以黄色和红色小点在地图上表示。

将鼠标移到小点上方,可查看气象台名称。

然后点击查看天气观测和预报。

如需切换地图:点击带黑十字的绿色按钮放大地图;点击带横线的绿色按钮缩小地图;或者点击绿色箭头查看邻近地区的地图。


METAR-TAF: